Terminal Aerodrome Forecast
Issued by NWS

Home | Current Version | Previous Version | Text Only | Print | Product List | Glossary On
Versions: 1 2 3 4 5 6 7 8 9 10 11 12 13 14 15 16
000
FTUS46 KOTX 192322
TAFMWH
TAF
KMWH 192322Z 2000/2024 22015G22KT P6SM VCSH BKN080 BKN100 BKN200
     FM200400 25016G24KT P6SM SCT080
     FM200800 23011KT P6SM SKC
     FM202000 20010G15KT P6SM SCT080 BKN120=

USA.gov is the U.S. government's official web portal to all federal, state and local government web resources and services.